createdAt,value
2023-05-09T00:00:14.027Z,9.38
2023-05-09T00:02:41.386Z,9.24
2023-05-09T00:05:08.587Z,9.13
2023-05-09T00:07:35.198Z,9.10
2023-05-09T00:10:01.790Z,9.07
2023-05-09T00:12:28.589Z,9.18
2023-05-09T00:14:56.830Z,8.97
2023-05-09T00:17:25.640Z,9.01
2023-05-09T00:19:53.094Z,8.85
2023-05-09T00:22:23.181Z,8.70
2023-05-09T00:24:50.580Z,8.70
2023-05-09T00:27:17.445Z,8.68
2023-05-09T00:29:44.048Z,8.55
2023-05-09T00:32:11.572Z,8.54
2023-05-09T00:34:38.194Z,8.70
2023-05-09T00:37:04.750Z,8.57
2023-05-09T00:39:31.346Z,8.51
2023-05-09T00:41:58.036Z,8.38
2023-05-09T00:44:24.668Z,8.50
2023-05-09T00:46:51.292Z,8.44
2023-05-09T00:49:17.910Z,8.35
2023-05-09T00:51:44.509Z,8.33
2023-05-09T00:54:12.091Z,8.29
2023-05-09T00:56:39.158Z,8.33
2023-05-09T00:59:06.506Z,8.30
2023-05-09T01:01:33.258Z,8.14
2023-05-09T01:04:00.137Z,8.47
2023-05-09T01:06:41.790Z,8.45
2023-05-09T01:09:47.685Z,8.25
2023-05-09T01:12:31.485Z,8.17
2023-05-09T01:15:16.906Z,8.15
2023-05-09T01:18:01.264Z,8.10
2023-05-09T01:20:38.299Z,8.23
2023-05-09T01:23:27.504Z,8.12
2023-05-09T01:26:10.515Z,8.09
2023-05-09T01:28:37.068Z,7.93
2023-05-09T01:31:05.626Z,8.12
2023-05-09T01:33:36.417Z,7.99
2023-05-09T01:36:06.951Z,8.01
2023-05-09T01:38:36.470Z,7.99
2023-05-09T01:41:05.473Z,8.10
2023-05-09T01:43:33.731Z,7.92
2023-05-09T01:46:02.238Z,8.06
2023-05-09T01:48:31.262Z,7.92
2023-05-09T01:50:59.405Z,7.85
2023-05-09T01:53:28.154Z,7.72
2023-05-09T01:55:56.699Z,7.76
2023-05-09T01:58:25.813Z,7.65
2023-05-09T02:00:53.080Z,7.61
2023-05-09T02:03:21.633Z,7.75
2023-05-09T02:05:50.050Z,7.75
2023-05-09T02:08:18.951Z,7.63
2023-05-09T02:10:47.533Z,7.54
2023-05-09T02:13:14.284Z,7.62
2023-05-09T02:15:41.903Z,7.48
2023-05-09T02:18:08.542Z,7.48
2023-05-09T02:20:36.068Z,7.43
2023-05-09T02:23:03.361Z,7.57
2023-05-09T02:25:30.607Z,7.44
2023-05-09T02:27:59.502Z,7.46
2023-05-09T02:30:26.952Z,7.37
2023-05-09T02:32:59.888Z,7.33
2023-05-09T02:35:28.594Z,7.25
2023-05-09T02:37:57.229Z,7.21
2023-05-09T02:40:26.325Z,7.16
2023-05-09T02:42:52.903Z,7.18
2023-05-09T02:45:19.668Z,7.26
2023-05-09T02:47:46.303Z,7.23
2023-05-09T02:50:13.104Z,7.18
2023-05-09T02:52:39.801Z,7.24
2023-05-09T02:55:07.544Z,7.23
2023-05-09T02:57:34.190Z,7.14
2023-05-09T03:00:00.856Z,7.01
2023-05-09T03:02:27.552Z,6.94
2023-05-09T03:04:54.181Z,6.89
2023-05-09T03:07:20.779Z,6.83
2023-05-09T03:09:47.372Z,6.87
2023-05-09T03:12:14.038Z,6.87
2023-05-09T03:14:40.732Z,6.80
2023-05-09T03:17:07.444Z,6.79
2023-05-09T03:19:34.221Z,6.80
2023-05-09T03:22:01.003Z,6.82
2023-05-09T03:24:30.416Z,6.81
2023-05-09T03:26:57.414Z,6.78
2023-05-09T03:29:24.083Z,6.91
2023-05-09T03:31:50.798Z,6.78
2023-05-09T03:34:17.619Z,6.73
2023-05-09T03:36:44.635Z,6.86
2023-05-09T03:39:11.560Z,6.83
2023-05-09T03:41:38.264Z,6.73
2023-05-09T03:44:05.634Z,6.76
2023-05-09T03:46:32.423Z,6.92
2023-05-09T03:48:59.082Z,6.76
2023-05-09T03:51:25.711Z,6.69
2023-05-09T03:53:52.376Z,6.76
2023-05-09T03:56:19.086Z,6.75
2023-05-09T03:58:45.708Z,6.76
2023-05-09T04:01:12.357Z,6.83
2023-05-09T04:03:39.200Z,6.93
2023-05-09T04:06:06.253Z,6.75
2023-05-09T04:08:33.258Z,7.01
2023-05-09T04:11:00.990Z,6.89
2023-05-09T04:13:28.293Z,7.31
2023-05-09T04:15:55.017Z,7.15
2023-05-09T04:18:22.201Z,7.21
2023-05-09T04:20:48.786Z,7.24
2023-05-09T04:23:15.422Z,7.38
2023-05-09T04:25:42.554Z,7.38
2023-05-09T04:28:09.122Z,7.36
2023-05-09T04:30:36.539Z,7.40
2023-05-09T04:33:03.339Z,7.38
2023-05-09T04:35:29.985Z,7.47
2023-05-09T04:37:56.587Z,7.46
2023-05-09T04:40:24.851Z,7.48
2023-05-09T04:42:52.816Z,7.59
2023-05-09T04:45:19.421Z,7.59
2023-05-09T04:47:46.528Z,7.48
2023-05-09T04:50:13.517Z,7.51
2023-05-09T04:52:40.121Z,7.77
2023-05-09T04:55:08.150Z,7.97
2023-05-09T04:57:34.803Z,8.13
2023-05-09T05:00:01.372Z,8.13
2023-05-09T05:02:30.956Z,8.21
2023-05-09T05:05:10.204Z,8.13
2023-05-09T05:07:38.585Z,8.44
2023-05-09T05:10:06.595Z,8.69
2023-05-09T05:12:33.271Z,8.86
2023-05-09T05:15:00.064Z,9.07
2023-05-09T05:17:29.517Z,9.10
2023-05-09T05:19:59.301Z,9.00
2023-05-09T05:22:25.928Z,8.97
2023-05-09T05:24:52.534Z,9.43
2023-05-09T05:27:19.240Z,9.54
2023-05-09T05:29:45.900Z,9.72
2023-05-09T05:32:12.571Z,9.66
2023-05-09T05:34:39.731Z,9.87
2023-05-09T05:37:06.336Z,10.01
2023-05-09T05:39:33.140Z,10.18
2023-05-09T05:41:59.796Z,10.27
2023-05-09T05:44:26.526Z,10.37
2023-05-09T05:46:53.139Z,10.41
2023-05-09T05:49:19.793Z,10.58
2023-05-09T05:51:46.397Z,10.60
2023-05-09T05:54:13.047Z,10.74
2023-05-09T05:56:39.655Z,10.87
2023-05-09T05:59:06.646Z,10.97
2023-05-09T06:01:33.336Z,11.01
2023-05-09T06:04:00.187Z,11.34
2023-05-09T06:06:34.756Z,11.49
2023-05-09T06:09:01.337Z,11.62
2023-05-09T06:11:27.928Z,11.81
2023-05-09T06:13:54.551Z,11.92
2023-05-09T06:16:21.502Z,12.00
2023-05-09T06:18:48.766Z,11.99
2023-05-09T06:21:15.374Z,12.05
2023-05-09T06:23:56.899Z,12.27
2023-05-09T06:26:28.576Z,12.40
2023-05-09T06:28:55.215Z,12.55
2023-05-09T06:31:22.548Z,12.42
2023-05-09T06:33:50.844Z,12.55
2023-05-09T06:36:17.538Z,12.69
2023-05-09T06:38:44.168Z,12.87
2023-05-09T06:41:10.789Z,12.63
2023-05-09T06:43:37.344Z,12.62
2023-05-09T06:46:04.416Z,12.94
2023-05-09T06:48:31.096Z,12.97
2023-05-09T06:50:57.692Z,13.03
2023-05-09T06:53:24.458Z,13.30
2023-05-09T06:55:51.118Z,13.33
2023-05-09T06:58:17.717Z,13.27
2023-05-09T07:00:44.413Z,13.28
2023-05-09T07:03:11.721Z,13.19
2023-05-09T07:05:56.351Z,13.17
2023-05-09T07:08:22.951Z,13.28
2023-05-09T07:10:49.573Z,13.19
2023-05-09T07:13:16.391Z,13.44
2023-05-09T07:15:43.564Z,13.59
2023-05-09T07:18:10.454Z,13.59
2023-05-09T07:20:37.216Z,13.52
2023-05-09T07:23:04.664Z,13.73
2023-05-09T07:25:31.362Z,13.79
2023-05-09T07:27:58.198Z,14.05
2023-05-09T07:30:25.356Z,13.80
2023-05-09T07:32:52.377Z,14.03
2023-05-09T07:35:20.097Z,13.83
2023-05-09T07:37:46.820Z,14.24
2023-05-09T07:40:14.154Z,14.16
2023-05-09T07:42:41.121Z,14.28
2023-05-09T07:45:08.360Z,13.85
2023-05-09T07:47:35.064Z,14.60
2023-05-09T07:50:01.955Z,14.85
2023-05-09T07:52:28.965Z,15.03
2023-05-09T07:54:55.755Z,15.07
2023-05-09T07:57:23.002Z,14.88
2023-05-09T07:59:49.583Z,15.37
2023-05-09T08:02:16.228Z,15.52
2023-05-09T08:04:42.951Z,15.63
2023-05-09T08:07:09.629Z,15.28
2023-05-09T08:09:36.310Z,15.54
2023-05-09T08:12:03.046Z,15.65
2023-05-09T08:14:29.886Z,16.02
2023-05-09T08:16:56.567Z,15.95
2023-05-09T08:19:26.191Z,15.90
2023-05-09T08:21:53.468Z,15.91
2023-05-09T08:24:20.356Z,16.17
2023-05-09T08:26:47.250Z,16.21
2023-05-09T08:29:13.997Z,16.38
2023-05-09T08:31:41.127Z,16.30
2023-05-09T08:34:07.946Z,16.53
2023-05-09T08:36:34.637Z,16.46
2023-05-09T08:39:01.284Z,16.45
2023-05-09T08:41:31.059Z,16.69
2023-05-09T08:43:58.313Z,16.68
2023-05-09T08:46:31.536Z,16.61
2023-05-09T08:48:59.796Z,16.84
2023-05-09T08:51:27.564Z,17.00
2023-05-09T08:53:54.795Z,16.69
2023-05-09T08:56:21.571Z,16.81
2023-05-09T08:58:48.233Z,16.89
2023-05-09T09:01:16.413Z,17.03
2023-05-09T09:03:47.733Z,16.65
2023-05-09T09:06:14.663Z,16.96
2023-05-09T09:08:42.413Z,17.39
2023-05-09T09:11:13.392Z,17.38
2023-05-09T09:13:41.984Z,17.38
2023-05-09T09:16:14.760Z,17.54
2023-05-09T09:18:41.451Z,17.81
2023-05-09T09:21:12.214Z,17.60
2023-05-09T09:23:42.971Z,17.63
2023-05-09T09:26:09.780Z,17.75
2023-05-09T09:28:36.536Z,17.72
2023-05-09T09:31:19.892Z,18.16
2023-05-09T09:33:47.273Z,17.98
2023-05-09T09:36:13.882Z,18.15
2023-05-09T09:38:43.828Z,18.33
2023-05-09T09:41:12.394Z,18.21
2023-05-09T09:43:39.026Z,18.36
2023-05-09T09:46:06.227Z,18.20
2023-05-09T09:48:34.811Z,18.58
2023-05-09T09:51:11.552Z,18.52
2023-05-09T09:53:44.966Z,18.26
2023-05-09T09:56:11.802Z,17.99
2023-05-09T09:58:38.631Z,18.50
2023-05-09T10:01:16.837Z,18.67
2023-05-09T10:03:48.210Z,18.40
2023-05-09T10:06:16.881Z,18.21
2023-05-09T10:08:49.078Z,18.27
2023-05-09T10:11:16.370Z,18.03
2023-05-09T10:13:44.684Z,18.28
2023-05-09T10:16:11.762Z,18.34
2023-05-09T10:18:42.568Z,18.39
2023-05-09T10:21:13.071Z,18.54
2023-05-09T10:23:43.136Z,18.54
2023-05-09T10:26:27.683Z,19.18
2023-05-09T10:29:01.274Z,19.06
2023-05-09T10:31:31.483Z,18.83
2023-05-09T10:34:02.128Z,18.87
2023-05-09T10:36:29.115Z,19.12
2023-05-09T10:38:56.332Z,19.41
2023-05-09T10:41:24.005Z,19.00
2023-05-09T10:43:51.174Z,19.20
2023-05-09T10:46:18.450Z,19.01
2023-05-09T10:48:45.874Z,19.30
2023-05-09T10:51:13.268Z,19.36
2023-05-09T10:53:49.979Z,19.57
2023-05-09T10:56:30.684Z,19.58
2023-05-09T10:58:57.940Z,19.47
2023-05-09T11:01:32.866Z,19.16
2023-05-09T11:04:01.054Z,19.42
2023-05-09T11:06:47.614Z,19.46
2023-05-09T11:09:34.523Z,19.79
2023-05-09T11:12:07.124Z,20.10
2023-05-09T11:14:45.210Z,20.21
2023-05-09T11:17:28.690Z,20.29
2023-05-09T11:20:32.103Z,19.89
2023-05-09T11:23:06.645Z,20.35
2023-05-09T11:25:39.379Z,20.18
2023-05-09T11:28:31.213Z,19.49
2023-05-09T11:31:18.155Z,19.76
2023-05-09T11:33:49.197Z,20.25
2023-05-09T11:36:32.294Z,20.15
2023-05-09T11:39:09.860Z,19.99
2023-05-09T11:42:04.257Z,20.06
2023-05-09T11:44:35.317Z,20.09
2023-05-09T11:47:02.032Z,20.06
2023-05-09T11:49:31.954Z,19.75
2023-05-09T11:51:59.850Z,19.86
2023-05-09T11:54:26.665Z,20.12
2023-05-09T11:56:53.302Z,20.20
2023-05-09T11:59:20.508Z,20.26
2023-05-09T12:01:48.345Z,19.94
2023-05-09T12:04:15.019Z,19.95
2023-05-09T12:06:48.709Z,20.08
2023-05-09T12:09:16.270Z,20.26
2023-05-09T12:11:50.254Z,20.32
2023-05-09T12:14:30.687Z,20.53
2023-05-09T12:16:57.699Z,20.33
2023-05-09T12:19:27.833Z,20.18
2023-05-09T12:21:59.078Z,19.92
2023-05-09T12:24:27.114Z,20.47
2023-05-09T12:26:54.724Z,20.49
2023-05-09T12:29:22.614Z,20.71
2023-05-09T12:31:50.221Z,20.49
2023-05-09T12:34:17.199Z,20.29
2023-05-09T12:36:50.705Z,20.26
2023-05-09T12:39:19.003Z,20.28
2023-05-09T12:41:53.884Z,20.29
2023-05-09T12:44:30.095Z,20.56
2023-05-09T12:47:04.643Z,20.41
2023-05-09T12:49:32.231Z,20.67
2023-05-09T12:52:03.018Z,20.48
2023-05-09T12:54:31.197Z,20.40
2023-05-09T12:56:59.134Z,20.35
2023-05-09T12:59:28.498Z,20.25
2023-05-09T13:02:00.112Z,20.31
2023-05-09T13:04:30.032Z,20.42
2023-05-09T13:06:58.670Z,20.13
2023-05-09T13:09:27.486Z,20.12
2023-05-09T13:11:55.438Z,20.29
2023-05-09T13:14:23.397Z,20.50
2023-05-09T13:16:50.131Z,20.30
2023-05-09T13:19:16.937Z,20.42
2023-05-09T13:21:43.630Z,20.43
2023-05-09T13:24:10.433Z,20.36
2023-05-09T13:26:37.079Z,20.67
2023-05-09T13:29:03.885Z,20.83
2023-05-09T13:31:31.344Z,20.80
2023-05-09T13:33:57.968Z,20.72
2023-05-09T13:36:24.664Z,20.78
2023-05-09T13:38:51.350Z,20.72
2023-05-09T13:41:21.758Z,20.47
2023-05-09T13:43:48.563Z,20.74
2023-05-09T13:46:15.664Z,20.62
2023-05-09T13:48:42.498Z,20.76
2023-05-09T13:51:09.934Z,20.54
2023-05-09T13:53:38.886Z,20.66
2023-05-09T13:56:28.856Z,20.55
2023-05-09T13:58:55.438Z,20.61
2023-05-09T14:01:22.239Z,20.64
2023-05-09T14:03:49.210Z,20.75
2023-05-09T14:06:15.959Z,20.71
2023-05-09T14:08:42.590Z,20.73
2023-05-09T14:11:09.378Z,20.69
2023-05-09T14:13:35.974Z,20.80
2023-05-09T14:16:02.583Z,20.62
2023-05-09T14:18:29.274Z,20.61
2023-05-09T14:20:56.502Z,20.47
2023-05-09T14:23:23.266Z,20.47
2023-05-09T14:25:49.943Z,20.53
2023-05-09T14:28:16.741Z,20.48
2023-05-09T14:30:43.824Z,20.76
2023-05-09T14:33:10.447Z,20.88
2023-05-09T14:35:39.677Z,20.80
2023-05-09T14:38:07.777Z,20.48
2023-05-09T14:40:34.396Z,20.49
2023-05-09T14:43:02.636Z,20.67
2023-05-09T14:45:30.069Z,20.72
2023-05-09T14:47:57.189Z,20.74
2023-05-09T14:50:23.929Z,20.54
2023-05-09T14:52:53.537Z,20.40
2023-05-09T14:55:22.995Z,20.59
2023-05-09T14:57:49.851Z,20.49
2023-05-09T15:00:21.683Z,20.48
2023-05-09T15:02:49.991Z,20.50
2023-05-09T15:05:17.237Z,20.29
2023-05-09T15:07:43.832Z,20.51
2023-05-09T15:10:13.907Z,20.65
2023-05-09T15:12:40.848Z,20.46
2023-05-09T15:15:14.572Z,20.24
2023-05-09T15:17:41.343Z,20.27
2023-05-09T15:20:08.249Z,20.09
2023-05-09T15:22:34.941Z,19.96
2023-05-09T15:25:03.393Z,20.35
2023-05-09T15:27:31.450Z,20.51
2023-05-09T15:29:58.167Z,20.44
2023-05-09T15:32:24.904Z,20.56
2023-05-09T15:34:51.594Z,20.55
2023-05-09T15:37:18.485Z,20.61
2023-05-09T15:39:45.681Z,20.62
2023-05-09T15:42:13.212Z,20.82
2023-05-09T15:44:40.811Z,20.70
2023-05-09T15:47:07.948Z,20.86
2023-05-09T15:49:34.793Z,21.06
2023-05-09T15:52:05.864Z,21.09
2023-05-09T15:54:33.960Z,21.46
2023-05-09T15:57:00.875Z,21.87
2023-05-09T15:59:27.739Z,22.00
2023-05-09T16:01:55.487Z,22.40
2023-05-09T16:04:22.513Z,22.32
2023-05-09T16:06:49.097Z,22.47
2023-05-09T16:09:15.764Z,22.22
2023-05-09T16:11:42.443Z,22.42
2023-05-09T16:14:11.597Z,22.62
2023-05-09T16:16:39.552Z,22.98
2023-05-09T16:19:06.950Z,23.04
2023-05-09T16:21:33.771Z,23.58
2023-05-09T16:24:03.068Z,23.18
2023-05-09T16:26:29.837Z,23.03
2023-05-09T16:28:56.875Z,22.90
2023-05-09T16:31:27.470Z,22.46
2023-05-09T16:33:54.632Z,22.26
2023-05-09T16:36:22.137Z,21.96
2023-05-09T16:38:48.910Z,22.01
2023-05-09T16:41:16.013Z,22.24
2023-05-09T16:43:42.808Z,21.59
2023-05-09T16:46:09.660Z,22.26
2023-05-09T16:48:36.313Z,22.06
2023-05-09T16:51:03.317Z,21.94
2023-05-09T16:53:29.937Z,22.07
2023-05-09T16:55:56.969Z,21.61
2023-05-09T16:58:23.790Z,20.76
2023-05-09T17:00:50.965Z,20.49
2023-05-09T17:03:17.601Z,20.29
2023-05-09T17:05:44.285Z,19.89
2023-05-09T17:08:11.457Z,19.47
2023-05-09T17:10:39.441Z,19.03
2023-05-09T17:13:08.969Z,19.08
2023-05-09T17:15:35.793Z,19.24
2023-05-09T17:18:03.175Z,19.04
2023-05-09T17:20:30.186Z,19.27
2023-05-09T17:22:57.389Z,19.92
2023-05-09T17:25:23.960Z,20.44
2023-05-09T17:27:50.627Z,20.57
2023-05-09T17:30:18.794Z,20.62
2023-05-09T17:32:46.782Z,20.70
2023-05-09T17:35:13.935Z,20.40
2023-05-09T17:37:40.940Z,20.41
2023-05-09T17:40:08.125Z,20.44
2023-05-09T17:42:34.968Z,20.12
2023-05-09T17:45:01.720Z,20.11
2023-05-09T17:47:29.287Z,20.18
2023-05-09T17:49:55.959Z,19.76
2023-05-09T17:52:22.592Z,19.02
2023-05-09T17:54:49.203Z,18.83
2023-05-09T17:57:15.816Z,18.93
2023-05-09T17:59:42.425Z,18.92
2023-05-09T18:02:09.013Z,18.66
2023-05-09T18:04:35.670Z,18.14
2023-05-09T18:07:02.675Z,18.14
2023-05-09T18:09:29.310Z,17.75
2023-05-09T18:11:56.066Z,17.58
2023-05-09T18:14:22.697Z,17.18
2023-05-09T18:16:49.341Z,17.12
2023-05-09T18:19:15.975Z,16.91
2023-05-09T18:21:42.709Z,16.60
2023-05-09T18:24:09.429Z,16.77
2023-05-09T18:26:36.234Z,16.56
2023-05-09T18:29:02.827Z,16.35
2023-05-09T18:31:31.347Z,16.34
2023-05-09T18:33:58.176Z,16.07
2023-05-09T18:36:24.777Z,15.96
2023-05-09T18:38:51.454Z,15.93
2023-05-09T18:41:18.285Z,16.01
2023-05-09T18:43:47.816Z,15.86
2023-05-09T18:46:18.658Z,15.76
2023-05-09T18:48:46.464Z,15.67
2023-05-09T18:51:13.288Z,15.71
2023-05-09T18:53:40.549Z,15.67
2023-05-09T18:56:07.752Z,15.36
2023-05-09T18:58:34.592Z,15.33
2023-05-09T19:01:01.560Z,15.22
2023-05-09T19:03:29.597Z,15.20
2023-05-09T19:05:56.501Z,15.31
2023-05-09T19:08:23.271Z,15.11
2023-05-09T19:10:49.917Z,15.05
2023-05-09T19:13:16.817Z,15.11
2023-05-09T19:15:43.582Z,15.16
2023-05-09T19:18:10.778Z,15.02
2023-05-09T19:20:37.844Z,14.85
2023-05-09T19:23:04.589Z,14.87
2023-05-09T19:25:34.003Z,14.98
2023-05-09T19:28:01.234Z,14.86
2023-05-09T19:30:27.789Z,14.89
2023-05-09T19:32:54.923Z,14.86
2023-05-09T19:35:22.300Z,14.90
2023-05-09T19:37:49.033Z,14.70
2023-05-09T19:40:16.634Z,14.85
2023-05-09T19:42:43.589Z,14.73
2023-05-09T19:45:10.865Z,14.80
2023-05-09T19:47:37.827Z,14.60
2023-05-09T19:50:05.213Z,14.56
2023-05-09T19:52:32.019Z,14.60
2023-05-09T19:54:58.864Z,14.21
2023-05-09T19:57:25.702Z,14.29
2023-05-09T19:59:53.685Z,14.20
2023-05-09T20:02:20.788Z,14.34
2023-05-09T20:04:50.248Z,14.27
2023-05-09T20:07:17.637Z,14.24
2023-05-09T20:09:44.694Z,13.94
2023-05-09T20:12:13.186Z,13.94
2023-05-09T20:14:40.462Z,14.09
2023-05-09T20:17:07.228Z,13.97
2023-05-09T20:19:34.535Z,14.01
2023-05-09T20:22:01.958Z,14.03
2023-05-09T20:24:28.854Z,13.82
2023-05-09T20:26:55.947Z,13.82
2023-05-09T20:29:24.997Z,13.85
2023-05-09T20:31:52.252Z,13.84
2023-05-09T20:34:21.177Z,13.85
2023-05-09T20:36:51.604Z,14.06
2023-05-09T20:39:18.777Z,13.99
2023-05-09T20:41:46.656Z,13.79
2023-05-09T20:44:15.383Z,13.73
2023-05-09T20:46:42.238Z,13.60
2023-05-09T20:49:09.682Z,13.55
2023-05-09T20:51:36.867Z,13.66
2023-05-09T20:54:04.101Z,13.74
2023-05-09T20:56:31.021Z,13.74
2023-05-09T20:59:01.222Z,13.59
2023-05-09T21:01:28.079Z,13.57
2023-05-09T21:03:54.802Z,13.56
2023-05-09T21:06:21.873Z,13.61
2023-05-09T21:08:48.729Z,13.58
2023-05-09T21:11:15.627Z,13.51
2023-05-09T21:13:42.463Z,13.38
2023-05-09T21:16:09.200Z,13.41
2023-05-09T21:18:36.048Z,13.42
2023-05-09T21:21:02.867Z,13.30
2023-05-09T21:23:30.065Z,13.37
2023-05-09T21:25:57.237Z,13.37
2023-05-09T21:28:24.180Z,13.26
2023-05-09T21:30:53.164Z,13.31
2023-05-09T21:33:20.934Z,13.23
2023-05-09T21:35:47.828Z,13.23
2023-05-09T21:38:14.450Z,13.31
2023-05-09T21:40:41.323Z,13.29
2023-05-09T21:43:08.176Z,13.15
2023-05-09T21:45:35.022Z,13.21
2023-05-09T21:48:02.285Z,13.21
2023-05-09T21:50:29.495Z,13.27
2023-05-09T21:52:59.244Z,13.07
2023-05-09T21:55:26.215Z,12.94
2023-05-09T21:57:53.017Z,12.79
2023-05-09T22:00:20.165Z,12.81
2023-05-09T22:02:47.118Z,12.79
2023-05-09T22:05:13.862Z,12.87
2023-05-09T22:07:40.704Z,12.70
2023-05-09T22:10:08.932Z,12.82
2023-05-09T22:12:35.758Z,12.48
2023-05-09T22:15:03.310Z,12.40
2023-05-09T22:17:30.329Z,12.55
2023-05-09T22:19:57.361Z,12.40
2023-05-09T22:22:24.308Z,12.50
2023-05-09T22:24:51.379Z,12.47
2023-05-09T22:27:18.291Z,12.34
2023-05-09T22:29:46.070Z,12.38
2023-05-09T22:32:13.179Z,12.31
2023-05-09T22:34:40.057Z,12.39
2023-05-09T22:37:07.334Z,12.40
2023-05-09T22:39:47.256Z,12.35
2023-05-09T22:42:14.120Z,12.20
2023-05-09T22:44:41.040Z,12.20
2023-05-09T22:47:14.879Z,12.08
2023-05-09T22:49:43.095Z,12.24
2023-05-09T22:52:11.109Z,12.08
2023-05-09T22:54:37.979Z,11.99
2023-05-09T22:57:04.813Z,11.92
2023-05-09T22:59:32.256Z,12.00
2023-05-09T23:02:08.438Z,11.99
2023-05-09T23:04:37.377Z,11.92
2023-05-09T23:07:04.578Z,11.80
2023-05-09T23:09:31.647Z,11.87
2023-05-09T23:12:02.592Z,11.74
2023-05-09T23:14:29.196Z,11.87
2023-05-09T23:16:56.833Z,11.70
2023-05-09T23:19:26.367Z,11.64
2023-05-09T23:21:53.622Z,11.54
2023-05-09T23:24:20.405Z,11.51
2023-05-09T23:26:47.016Z,11.47
2023-05-09T23:29:13.917Z,11.47
2023-05-09T23:31:43.628Z,11.53
2023-05-09T23:34:10.379Z,11.49
2023-05-09T23:36:37.100Z,11.54
2023-05-09T23:39:06.160Z,11.36
2023-05-09T23:41:39.035Z,11.35
2023-05-09T23:44:07.838Z,11.28
2023-05-09T23:46:36.150Z,11.34
2023-05-09T23:49:13.572Z,11.33
2023-05-09T23:51:48.763Z,11.39
2023-05-09T23:54:16.737Z,11.40
2023-05-09T23:56:43.952Z,11.33
2023-05-09T23:59:21.419Z,11.23
